Tropical Cyclones
[Index]
Main Index Home Page Stock Weather Photos Extreme Storms Discussion Storm News and Storm Chasing Reports Tropical Cyclones / Hurricanes / Typhoons Weather Data and Links Wild Fires / Bushfires Weather Observation Techniques Weather Picture Catalogue Tornado Pictures and Reports Stock Video Footage and DVDs for sale
Season 1974-1975 Tropical Cyclone NORAH Track Map
Season 1974-1975 Summaries: [BoM-AU] [JTWC-AU] [JTWC-SIO] [JTWC-SPAC] [JTWC-SH]
<<- Previous TC | BoM 1974-1975 Season | Next TC ->>

click for intensity scale information  Lat/long Grid: Show Hide

 Date Labels: Show Hide

Bureau of Meteorology Tropical Cyclone Data

Name: NORAH
Number: 531 / 197475_02

28 Oct 1974 00:00 UTC to 04 Nov 1974 00:00 UTC

    date/time    lat    long    hPa   cat  kts
1974-10-28 00    8.0   105.1   1006                     
1974-10-28 03    7.9   104.8   1006                     
1974-10-28 06    7.9   104.6   1006                     
1974-10-28 09    7.8   104.3   1006                     
1974-10-28 12    7.7   104.1   1006                     
1974-10-28 15    7.7   103.8   1006                     
1974-10-28 18    7.6   103.5   1006                     
1974-10-28 21    7.6   103.4   1006                     
1974-10-29 00    7.6   103.2   1006                     
1974-10-29 03    7.6   102.6   1006                     
1974-10-29 06    7.6   102.1   1006                     
1974-10-29 09    7.8   101.5   1005                     
1974-10-29 12    8.0   101.1   1005                     
1974-10-29 15    8.5   100.5   1004                     
1974-10-29 18    9.0   100.1   1003                     
1974-10-29 21    9.4    99.6   1003                     
1974-10-30 00    9.8    99.0   1003                     
1974-10-30 03    9.8    98.6   1002                     
1974-10-30 06    9.9    98.1   1000                     
1974-10-30 09   10.0    97.6    999                     
1974-10-30 12   10.2    97.1    997                     
1974-10-30 15   10.4    96.6    996                     
1974-10-30 18   10.6    96.1    995    1                
1974-10-30 21   10.8    95.5    994    1                
1974-10-31 00   11.2    95.0    994    1                
1974-10-31 03   11.4    94.6    992    1                
1974-10-31 06   11.4    94.3    990    1                
1974-10-31 09   11.7    93.9    989    1                
1974-10-31 12   12.0    93.4    987    1                
1974-10-31 15   12.2    93.0    985    2                
1974-10-31 18   12.3    92.5    983    2                
1974-10-31 21   12.4    92.2    982    2                
1974-11-01 00   12.5    91.6    981    2                
1974-11-01 03   12.6    91.4    981    2                
1974-11-01 06   12.6    90.8    982    2                
1974-11-01 09   12.7    90.4    984    2                
1974-11-01 12   12.8    89.8    988    1                
1974-11-01 15   12.9    89.4    991    1                
1974-11-01 18   13.0    88.7    992    1                
1974-11-01 21   13.0    88.2    993    1                
1974-11-02 00   13.1    87.6    994    1                
1974-11-02 03   13.1    87.0    994    1                
1974-11-02 06   13.2    86.4    993    1                
1974-11-02 09   13.2    85.6    994    1                
1974-11-02 12   13.2    85.0    995    1                
1974-11-02 15   13.1    84.3    998                     
1974-11-02 18   13.0    83.7    998                     
1974-11-02 21   12.9    83.0    998                     
1974-11-03 00   12.7    82.4    999                     
1974-11-03 03   12.6    81.7    999                     
1974-11-03 06   12.4    81.2    999                     
1974-11-03 09   12.2    80.4   1000                     
1974-11-03 12   12.0    79.6   1001                     
1974-11-03 15   11.7    78.9   1002                     
1974-11-03 18   11.5    78.3   1002                     
1974-11-03 21   11.4    77.5   1003                     
1974-11-04 00   11.3    76.6   1004                     
Winds are 10-min average.

Tropical cyclone tracks developed by Michael Bath using data from the Bureau of Meteorology and Google Maps.


[Australian Severe Weather index] [Copyright Notice] [Email Contacts] [Search This Site] [Privacy Policy]
Document: tropical_cyclone_norah.htm Updated: 30 May 2013